sensor_id;sensor_type;location;lat;lon;timestamp;pressure;altitude;pressure_sealevel;temperature;humidity
73455;BME280;61690;51.824;6.306;2023-01-24T00:00:51;103714.44;;;16.89;43.54
73455;BME280;61690;51.824;6.306;2023-01-24T00:03:16;103725.88;;;16.87;43.22
73455;BME280;61690;51.824;6.306;2023-01-24T00:05:44;103717.13;;;16.88;43.36
73455;BME280;61690;51.824;6.306;2023-01-24T00:08:15;103718.00;;;16.85;43.28
73455;BME280;61690;51.824;6.306;2023-01-24T00:10:41;103707.50;;;16.83;43.66
73455;BME280;61690;51.824;6.306;2023-01-24T00:13:10;103710.09;;;16.87;43.31
73455;BME280;61690;51.824;6.306;2023-01-24T00:15:36;103707.50;;;16.83;43.35
73455;BME280;61690;51.824;6.306;2023-01-24T00:18:01;103711.03;;;16.81;43.29
73455;BME280;61690;51.824;6.306;2023-01-24T00:20:26;103704.06;;;16.78;43.43
73455;BME280;61690;51.824;6.306;2023-01-24T00:22:52;103702.28;;;16.82;43.36
73455;BME280;61690;51.824;6.306;2023-01-24T00:25:17;103702.31;;;16.77;43.49
73455;BME280;61690;51.824;6.306;2023-01-24T00:27:43;103696.19;;;16.75;43.40
73455;BME280;61690;51.824;6.306;2023-01-24T00:30:08;103697.06;;;16.76;43.46
73455;BME280;61690;51.824;6.306;2023-01-24T00:32:34;103699.69;;;16.76;43.63
73455;BME280;61690;51.824;6.306;2023-01-24T00:34:59;103697.06;;;16.76;43.29
73455;BME280;61690;51.824;6.306;2023-01-24T00:37:25;103697.97;;;16.75;43.49
73455;BME280;61690;51.824;6.306;2023-01-24T00:39:50;103697.97;;;16.73;43.65
73455;BME280;61690;51.824;6.306;2023-01-24T00:42:15;103695.34;;;16.73;43.25
73455;BME280;61690;51.824;6.306;2023-01-24T00:44:41;103705.00;;;16.73;43.62
73455;BME280;61690;51.824;6.306;2023-01-24T00:47:06;103698.91;;;16.71;43.36
73455;BME280;61690;51.824;6.306;2023-01-24T00:49:31;103699.78;;;16.68;43.57
73455;BME280;61690;51.824;6.306;2023-01-24T00:51:57;103698.06;;;16.67;43.61
73455;BME280;61690;51.824;6.306;2023-01-24T00:54:22;103698.06;;;16.67;43.34
73455;BME280;61690;51.824;6.306;2023-01-24T00:56:47;103691.13;;;16.63;43.37
73455;BME280;61690;51.824;6.306;2023-01-24T00:59:13;103698.94;;;16.66;43.60
73455;BME280;61690;51.824;6.306;2023-01-24T01:01:38;103687.56;;;16.65;43.38
73455;BME280;61690;51.824;6.306;2023-01-24T01:04:04;103685.84;;;16.63;43.65
73455;BME280;61690;51.824;6.306;2023-01-24T01:06:29;103683.25;;;16.61;43.39
73455;BME280;61690;51.824;6.306;2023-01-24T01:08:55;103685.84;;;16.63;43.37
73455;BME280;61690;51.824;6.306;2023-01-24T01:11:20;103685.00;;;16.61;43.64
73455;BME280;61690;51.824;6.306;2023-01-24T01:13:46;103687.63;;;16.61;43.55
73455;BME280;61690;51.824;6.306;2023-01-24T01:16:16;103684.16;;;16.59;43.40
73455;BME280;61690;51.824;6.306;2023-01-24T01:18:44;103684.16;;;16.59;43.59
73455;BME280;61690;51.824;6.306;2023-01-24T01:21:12;103689.41;;;16.59;43.66
73455;BME280;61690;51.824;6.306;2023-01-24T01:23:38;103684.19;;;16.56;43.45
73455;BME280;61690;51.824;6.306;2023-01-24T01:26:05;103691.22;;;16.54;43.40
73455;BME280;61690;51.824;6.306;2023-01-24T01:28:31;103695.63;;;16.53;43.45
73455;BME280;61690;51.824;6.306;2023-01-24T01:30:57;103690.38;;;16.52;43.70
73455;BME280;61690;51.824;6.306;2023-01-24T01:33:22;103695.63;;;16.53;43.53
73455;BME280;61690;51.824;6.306;2023-01-24T01:35:49;103690.38;;;16.50;43.50
73455;BME280;61690;51.824;6.306;2023-01-24T01:38:14;103684.28;;;16.50;43.66
73455;BME280;61690;51.824;6.306;2023-01-24T01:40:40;103686.91;;;16.50;43.75
73455;BME280;61690;51.824;6.306;2023-01-24T01:43:12;103690.38;;;16.50;43.38
73455;BME280;61690;51.824;6.306;2023-01-24T01:45:47;103687.81;;;16.45;43.70
73455;BME280;61690;51.824;6.306;2023-01-24T01:48:19;103693.06;;;16.45;43.65
73455;BME280;61690;51.824;6.306;2023-01-24T01:50:53;103687.78;;;16.49;43.36
73455;BME280;61690;51.824;6.306;2023-01-24T01:53:23;103697.41;;;16.48;43.49
73455;BME280;61690;51.824;6.306;2023-01-24T01:55:58;103701.84;;;16.44;43.54
73455;BME280;61690;51.824;6.306;2023-01-24T01:58:26;103702.75;;;16.43;43.60
73455;BME280;61690;51.824;6.306;2023-01-24T02:00:52;103695.72;;;16.42;43.56
73455;BME280;61690;51.824;6.306;2023-01-24T02:03:25;103697.50;;;16.42;43.54
73455;BME280;61690;51.824;6.306;2023-01-24T02:09:07;103696.59;;;16.41;43.31
73455;BME280;61690;51.824;6.306;2023-01-24T02:11:34;103700.13;;;16.40;43.70
73455;BME280;61690;51.824;6.306;2023-01-24T02:14:03;103701.91;;;16.38;43.54
73455;BME280;61690;51.824;6.306;2023-01-24T02:16:47;103697.53;;;16.39;43.49
73455;BME280;61690;51.824;6.306;2023-01-24T02:22:10;103691.41;;;16.37;43.52
73455;BME280;61690;51.824;6.306;2023-01-24T02:24:40;103693.13;;;16.39;43.67
73455;BME280;61690;51.824;6.306;2023-01-24T02:27:08;103690.56;;;16.35;43.49
73455;BME280;61690;51.824;6.306;2023-01-24T02:29:34;103688.81;;;16.34;43.86
73455;BME280;61690;51.824;6.306;2023-01-24T02:32:02;103685.31;;;16.33;43.74
73455;BME280;61690;51.824;6.306;2023-01-24T02:34:29;103686.22;;;16.32;43.53
73455;BME280;61690;51.824;6.306;2023-01-24T02:37:00;103680.13;;;16.30;43.54
73455;BME280;61690;51.824;6.306;2023-01-24T02:39:55;103691.50;;;16.29;43.67
73455;BME280;61690;51.824;6.306;2023-01-24T02:42:26;103687.09;;;16.31;43.56
73455;BME280;61690;51.824;6.306;2023-01-24T02:45:19;103691.50;;;16.29;43.69
73455;BME280;61690;51.824;6.306;2023-01-24T02:47:48;103688.00;;;16.30;43.57
73455;BME280;61690;51.824;6.306;2023-01-24T02:50:19;103686.28;;;16.26;43.51
73455;BME280;61690;51.824;6.306;2023-01-24T02:52:45;103693.28;;;16.27;43.58
73455;BME280;61690;51.824;6.306;2023-01-24T02:55:30;103688.03;;;16.27;43.56
73455;BME280;61690;51.824;6.306;2023-01-24T02:57:56;103684.53;;;16.25;43.41
73455;BME280;61690;51.824;6.306;2023-01-24T03:00:41;103688.94;;;16.23;43.92
73455;BME280;61690;51.824;6.306;2023-01-24T03:03:08;103683.66;;;16.26;43.49
73455;BME280;61690;51.824;6.306;2023-01-24T03:05:33;103682.78;;;16.24;43.69
73455;BME280;61690;51.824;6.306;2023-01-24T03:08:24;103674.91;;;16.24;43.74
73455;BME280;61690;51.824;6.306;2023-01-24T03:10:50;103676.69;;;16.22;43.59
73455;BME280;61690;51.824;6.306;2023-01-24T03:13:16;103681.97;;;16.20;43.58
73455;BME280;61690;51.824;6.306;2023-01-24T03:16:01;103677.59;;;16.19;43.83
73455;BME280;61690;51.824;6.306;2023-01-24T03:18:46;103676.75;;;16.17;43.55
73455;BME280;61690;51.824;6.306;2023-01-24T03:21:29;103671.53;;;16.14;43.85
73455;BME280;61690;51.824;6.306;2023-01-24T03:24:13;103676.75;;;16.17;43.64
73455;BME280;61690;51.824;6.306;2023-01-24T03:26:57;103672.38;;;16.16;43.46
73455;BME280;61690;51.824;6.306;2023-01-24T03:29:41;103679.41;;;16.14;43.63
73455;BME280;61690;51.824;6.306;2023-01-24T03:32:25;103670.66;;;16.12;43.61
73455;BME280;61690;51.824;6.306;2023-01-24T03:35:09;103665.44;;;16.11;43.88
73455;BME280;61690;51.824;6.306;2023-01-24T03:37:34;103668.03;;;16.12;43.46
73455;BME280;61690;51.824;6.306;2023-01-24T03:40:19;103662.81;;;16.11;43.54
73455;BME280;61690;51.824;6.306;2023-01-24T03:42:44;103661.94;;;16.12;43.72
73455;BME280;61690;51.824;6.306;2023-01-24T03:45:24;103660.22;;;16.09;43.66
73455;BME280;61690;51.824;6.306;2023-01-24T03:47:52;103662.00;;;16.07;43.72
73455;BME280;61690;51.824;6.306;2023-01-24T03:50:28;103667.25;;;16.07;43.87
73455;BME280;61690;51.824;6.306;2023-01-24T03:53:13;103666.34;;;16.06;43.59
73455;BME280;61690;51.824;6.306;2023-01-24T03:55:39;103671.59;;;16.08;43.91
73455;BME280;61690;51.824;6.306;2023-01-24T03:58:05;103675.91;;;16.12;43.80
73455;BME280;61690;51.824;6.306;2023-01-24T04:00:31;103681.16;;;16.17;43.67
73455;BME280;61690;51.824;6.306;2023-01-24T04:02:56;103671.25;;;16.39;42.98
73455;BME280;61690;51.824;6.306;2023-01-24T04:05:22;103677.22;;;16.52;42.88
73455;BME280;61690;51.824;6.306;2023-01-24T04:07:47;103684.09;;;16.63;42.71
73455;BME280;61690;51.824;6.306;2023-01-24T04:10:13;103678.72;;;16.74;42.22
73455;BME280;61690;51.824;6.306;2023-01-24T04:12:40;103681.19;;;16.85;42.17
73455;BME280;61690;51.824;6.306;2023-01-24T04:15:06;103683.59;;;17.02;41.86
73455;BME280;61690;51.824;6.306;2023-01-24T04:17:31;103677.31;;;17.12;41.47
73455;BME280;61690;51.824;6.306;2023-01-24T04:19:57;103674.50;;;17.26;41.27
73455;BME280;61690;51.824;6.306;2023-01-24T04:22:22;103675.13;;;17.39;41.28
73455;BME280;61690;51.824;6.306;2023-01-24T04:24:48;103677.78;;;17.39;41.07
73455;BME280;61690;51.824;6.306;2023-01-24T04:27:13;103675.84;;;17.50;41.04
73455;BME280;61690;51.824;6.306;2023-01-24T04:29:38;103682.75;;;17.57;41.02
73455;BME280;61690;51.824;6.306;2023-01-24T04:32:04;103682.72;;;17.60;40.86
73455;BME280;61690;51.824;6.306;2023-01-24T04:34:29;103689.66;;;17.64;40.81
73455;BME280;61690;51.824;6.306;2023-01-24T04:36:54;103686.94;;;17.68;40.69
73455;BME280;61690;51.824;6.306;2023-01-24T04:39:20;103684.16;;;17.77;40.64
73455;BME280;61690;51.824;6.306;2023-01-24T04:41:45;103682.44;;;17.76;40.48
73455;BME280;61690;51.824;6.306;2023-01-24T04:44:10;103685.84;;;17.81;40.92
73455;BME280;61690;51.824;6.306;2023-01-24T04:46:36;103684.91;;;17.87;40.36
73455;BME280;61690;51.824;6.306;2023-01-24T04:49:01;103686.53;;;17.94;40.71
73455;BME280;61690;51.824;6.306;2023-01-24T04:51:26;103683.88;;;17.95;40.27
73455;BME280;61690;51.824;6.306;2023-01-24T04:53:52;103683.84;;;17.97;40.74
73455;BME280;61690;51.824;6.306;2023-01-24T04:56:17;103684.63;;;18.02;40.45
73455;BME280;61690;51.824;6.306;2023-01-24T04:58:42;103675.00;;;17.99;40.66
73455;BME280;61690;51.824;6.306;2023-01-24T05:01:07;103684.63;;;18.00;40.51
73455;BME280;61690;51.824;6.306;2023-01-24T05:03:33;103679.44;;;17.97;40.74
73455;BME280;61690;51.824;6.306;2023-01-24T05:05:58;103682.09;;;17.97;40.59
73455;BME280;61690;51.824;6.306;2023-01-24T05:08:24;103682.16;;;17.93;40.87
73455;BME280;61690;51.824;6.306;2023-01-24T05:10:49;103685.38;;;18.09;40.72
73455;BME280;61690;51.824;6.306;2023-01-24T05:13:14;103691.50;;;18.11;40.34
73455;BME280;61690;51.824;6.306;2023-01-24T05:15:46;103684.31;;;18.17;40.45
73455;BME280;61690;51.824;6.306;2023-01-24T05:18:12;103684.25;;;18.22;40.29
73455;BME280;61690;51.824;6.306;2023-01-24T05:20:37;103689.53;;;18.22;40.18
73455;BME280;61690;51.824;6.306;2023-01-24T05:23:03;103684.19;;;18.23;40.29
73455;BME280;61690;51.824;6.306;2023-01-24T05:25:28;103694.25;;;18.05;40.77
73455;BME280;61690;51.824;6.306;2023-01-24T05:27:53;103697.44;;;18.22;40.20
73455;BME280;61690;51.824;6.306;2023-01-24T05:30:18;103697.84;;;18.44;39.74
73455;BME280;61690;51.824;6.306;2023-01-24T05:32:44;103698.31;;;18.65;39.73
73455;BME280;61690;51.824;6.306;2023-01-24T05:35:09;103695.66;;;18.66;39.39
73455;BME280;61690;51.824;6.306;2023-01-24T05:37:38;103699.97;;;18.70;39.05
73455;BME280;61690;51.824;6.306;2023-01-24T05:40:05;103706.19;;;18.66;39.60
73455;BME280;61690;51.824;6.306;2023-01-24T05:42:30;103704.25;;;18.76;39.14
73455;BME280;61690;51.824;6.306;2023-01-24T05:44:56;103711.47;;;18.66;39.44
73455;BME280;61690;51.824;6.306;2023-01-24T05:47:21;103714.59;;;18.41;39.22
73455;BME280;61690;51.824;6.306;2023-01-24T05:49:47;103719.03;;;18.41;39.44
73455;BME280;61690;51.824;6.306;2023-01-24T05:52:12;103716.81;;;18.63;39.06
73455;BME280;61690;51.824;6.306;2023-01-24T05:54:40;103717.63;;;18.65;39.06
73455;BME280;61690;51.824;6.306;2023-01-24T05:57:05;103724.66;;;18.66;39.36
73455;BME280;61690;51.824;6.306;2023-01-24T05:59:30;103723.72;;;18.69;39.08
73455;BME280;61690;51.824;6.306;2023-01-24T06:01:56;103721.25;;;18.61;39.39
73455;BME280;61690;51.824;6.306;2023-01-24T06:04:22;103723.94;;;18.58;39.40
73455;BME280;61690;51.824;6.306;2023-01-24T06:06:48;103732.72;;;18.58;39.35
73455;BME280;61690;51.824;6.306;2023-01-24T06:09:13;103725.72;;;18.56;39.82
73455;BME280;61690;51.824;6.306;2023-01-24T06:11:38;103724.97;;;18.51;39.62
73455;BME280;61690;51.824;6.306;2023-01-24T06:14:03;103719.75;;;18.48;39.52
73455;BME280;61690;51.824;6.306;2023-01-24T06:16:29;103723.34;;;18.44;39.71
73455;BME280;61690;51.824;6.306;2023-01-24T06:18:55;103724.22;;;18.44;39.54
73455;BME280;61690;51.824;6.306;2023-01-24T06:24:04;103727.06;;;18.33;40.06
73455;BME280;61690;51.824;6.306;2023-01-24T06:26:30;103726.31;;;18.25;39.51
73455;BME280;61690;51.824;6.306;2023-01-24T06:28:56;103734.34;;;18.19;39.89
73455;BME280;61690;51.824;6.306;2023-01-24T06:31:31;103735.22;;;18.19;39.81
73455;BME280;61690;51.824;6.306;2023-01-24T06:39:49;103729.31;;;18.07;39.86
73455;BME280;61690;51.824;6.306;2023-01-24T06:42:17;103732.03;;;18.00;39.88
73455;BME280;61690;51.824;6.306;2023-01-24T06:44:42;103737.38;;;17.99;40.00
73455;BME280;61690;51.824;6.306;2023-01-24T06:47:09;103736.53;;;17.97;40.02
73455;BME280;61690;51.824;6.306;2023-01-24T06:49:35;103740.09;;;17.93;40.15
73455;BME280;61690;51.824;6.306;2023-01-24T06:52:01;103741.97;;;17.86;39.91
73455;BME280;61690;51.824;6.306;2023-01-24T06:54:26;103738.50;;;17.84;39.85
73455;BME280;61690;51.824;6.306;2023-01-24T06:56:51;103751.66;;;17.82;40.14
73455;BME280;61690;51.824;6.306;2023-01-24T06:59:16;103743.75;;;17.81;39.70
73455;BME280;61690;51.824;6.306;2023-01-24T07:01:42;103755.25;;;17.75;40.44
73455;BME280;61690;51.824;6.306;2023-01-24T07:04:07;103752.69;;;17.74;40.23
73455;BME280;61690;51.824;6.306;2023-01-24T07:06:32;103752.72;;;17.71;40.17
73455;BME280;61690;51.824;6.306;2023-01-24T07:08:58;103749.22;;;17.70;40.21
73455;BME280;61690;51.824;6.306;2023-01-24T07:11:23;103754.50;;;17.69;39.97
73455;BME280;61690;51.824;6.306;2023-01-24T07:13:49;103749.28;;;17.66;40.49
73455;BME280;61690;51.824;6.306;2023-01-24T07:16:14;103752.88;;;17.61;40.16
73455;BME280;61690;51.824;6.306;2023-01-24T07:18:39;103756.41;;;17.60;40.35
73455;BME280;61690;51.824;6.306;2023-01-24T07:21:06;103760.84;;;17.57;40.06
73455;BME280;61690;51.824;6.306;2023-01-24T07:23:33;103761.69;;;17.57;40.47
73455;BME280;61690;51.824;6.306;2023-01-24T07:25:59;103765.22;;;17.56;40.50
73455;BME280;61690;51.824;6.306;2023-01-24T07:28:25;103762.63;;;17.55;40.26
73455;BME280;61690;51.824;6.306;2023-01-24T07:30:53;103759.09;;;17.54;40.49
73455;BME280;61690;51.824;6.306;2023-01-24T07:33:18;103764.44;;;17.50;40.50
73455;BME280;61690;51.824;6.306;2023-01-24T07:35:44;103765.38;;;17.47;40.51
73455;BME280;61690;51.824;6.306;2023-01-24T07:38:10;103770.72;;;17.41;40.79
73455;BME280;61690;51.824;6.306;2023-01-24T07:40:37;103776.81;;;17.44;40.61
73455;BME280;61690;51.824;6.306;2023-01-24T07:43:03;103790.06;;;17.37;40.97
73455;BME280;61690;51.824;6.306;2023-01-24T07:45:29;103776.91;;;17.38;40.68
73455;BME280;61690;51.824;6.306;2023-01-24T07:47:56;103790.06;;;17.38;40.41
73455;BME280;61690;51.824;6.306;2023-01-24T07:50:22;103790.91;;;17.39;40.40
73455;BME280;61690;51.824;6.306;2023-01-24T07:52:52;103793.63;;;17.33;40.52
73455;BME280;61690;51.824;6.306;2023-01-24T07:55:18;103801.59;;;17.30;40.77
73455;BME280;61690;51.824;6.306;2023-01-24T07:57:43;103789.31;;;17.30;40.58
73455;BME280;61690;51.824;6.306;2023-01-24T08:00:09;103795.47;;;17.28;40.80
73455;BME280;61690;51.824;6.306;2023-01-24T08:02:34;103792.81;;;17.28;40.59
73455;BME280;61690;51.824;6.306;2023-01-24T08:05:00;103797.28;;;17.24;41.14
73455;BME280;61690;51.824;6.306;2023-01-24T08:07:25;103797.28;;;17.24;41.00
73455;BME280;61690;51.824;6.306;2023-01-24T08:09:50;103804.28;;;17.22;40.55
73455;BME280;61690;51.824;6.306;2023-01-24T08:12:15;103804.34;;;17.20;40.92
73455;BME280;61690;51.824;6.306;2023-01-24T08:14:41;103800.88;;;17.17;40.82
73455;BME280;61690;51.824;6.306;2023-01-24T08:17:06;103804.38;;;17.17;40.45
73455;BME280;61690;51.824;6.306;2023-01-24T08:19:32;103801.78;;;17.14;40.98
73455;BME280;61690;51.824;6.306;2023-01-24T08:21:57;103805.31;;;17.12;40.64
73455;BME280;61690;51.824;6.306;2023-01-24T08:24:23;103813.28;;;17.09;40.78
73455;BME280;61690;51.824;6.306;2023-01-24T08:26:48;103820.25;;;17.08;41.05
73455;BME280;61690;51.824;6.306;2023-01-24T08:29:14;103815.91;;;17.09;40.74
73455;BME280;61690;51.824;6.306;2023-01-24T08:31:40;103815.06;;;17.05;40.78
73455;BME280;61690;51.824;6.306;2023-01-24T08:34:05;103815.09;;;17.02;40.99
73455;BME280;61690;51.824;6.306;2023-01-24T08:36:31;103814.22;;;17.01;40.72
73455;BME280;61690;51.824;6.306;2023-01-24T08:38:56;103824.75;;;17.00;41.26
73455;BME280;61690;51.824;6.306;2023-01-24T08:41:21;103819.53;;;16.97;40.75
73455;BME280;61690;51.824;6.306;2023-01-24T08:43:47;103819.56;;;16.94;41.17
73455;BME280;61690;51.824;6.306;2023-01-24T08:46:12;103821.31;;;16.95;41.09
73455;BME280;61690;51.824;6.306;2023-01-24T08:48:37;103819.53;;;16.97;40.81
73455;BME280;61690;51.824;6.306;2023-01-24T08:51:03;103815.19;;;16.93;40.92
73455;BME280;61690;51.824;6.306;2023-01-24T08:53:29;103816.13;;;16.89;41.14
73455;BME280;61690;51.824;6.306;2023-01-24T08:55:54;103820.50;;;16.90;40.91
73455;BME280;61690;51.824;6.306;2023-01-24T08:58:20;103824.88;;;16.89;41.08
73455;BME280;61690;51.824;6.306;2023-01-24T09:00:46;103824.94;;;16.83;40.90
73455;BME280;61690;51.824;6.306;2023-01-24T09:03:14;103829.34;;;16.79;41.47
73455;BME280;61690;51.824;6.306;2023-01-24T09:05:40;103831.09;;;16.80;41.39
73455;BME280;61690;51.824;6.306;2023-01-24T09:08:05;103826.69;;;16.79;41.09
73455;BME280;61690;51.824;6.306;2023-01-24T09:10:31;103819.72;;;16.77;41.29
73455;BME280;61690;51.824;6.306;2023-01-24T09:12:56;103827.69;;;16.72;41.38
73455;BME280;61690;51.824;6.306;2023-01-24T09:15:22;103837.28;;;16.76;41.10
73455;BME280;61690;51.824;6.306;2023-01-24T09:17:47;103836.38;;;16.76;40.97
73455;BME280;61690;51.824;6.306;2023-01-24T09:20:13;103840.78;;;16.75;41.14
73455;BME280;61690;51.824;6.306;2023-01-24T09:22:38;103844.31;;;16.71;41.08
73455;BME280;61690;51.824;6.306;2023-01-24T09:25:04;103846.09;;;16.71;41.48
73455;BME280;61690;51.824;6.306;2023-01-24T09:27:30;103839.13;;;16.66;41.56
73455;BME280;61690;51.824;6.306;2023-01-24T09:29:55;103839.13;;;16.65;41.14
73455;BME280;61690;51.824;6.306;2023-01-24T09:32:21;103838.22;;;16.66;41.22
73455;BME280;61690;51.824;6.306;2023-01-24T09:34:46;103838.28;;;16.63;41.14
73455;BME280;61690;51.824;6.306;2023-01-24T09:37:20;103847.91;;;16.62;41.16
73455;BME280;61690;51.824;6.306;2023-01-24T09:39:46;103847.03;;;16.62;41.36
73455;BME280;61690;51.824;6.306;2023-01-24T09:42:37;103850.56;;;16.61;41.37
73455;BME280;61690;51.824;6.306;2023-01-24T09:45:16;103849.75;;;16.56;41.54
73455;BME280;61690;51.824;6.306;2023-01-24T09:47:56;103845.34;;;16.55;41.41
73455;BME280;61690;51.824;6.306;2023-01-24T09:50:38;103857.63;;;16.56;41.31
73455;BME280;61690;51.824;6.306;2023-01-24T09:53:16;103845.34;;;16.55;41.15
73455;BME280;61690;51.824;6.306;2023-01-24T09:55:43;103845.41;;;16.53;41.19
73455;BME280;61690;51.824;6.306;2023-01-24T09:58:25;103848.88;;;16.54;41.37
73455;BME280;61690;51.824;6.306;2023-01-24T10:00:59;103845.41;;;16.52;41.14
73455;BME280;61690;51.824;6.306;2023-01-24T10:03:26;103848.91;;;16.51;41.15
73455;BME280;61690;51.824;6.306;2023-01-24T10:06:22;103858.56;;;16.49;41.28
73455;BME280;61690;51.824;6.306;2023-01-24T10:09:11;103852.44;;;16.50;41.40
73455;BME280;61690;51.824;6.306;2023-01-24T10:11:47;103859.47;;;16.48;41.22
73455;BME280;61690;51.824;6.306;2023-01-24T10:17:56;103864.72;;;16.46;41.31
73455;BME280;61690;51.824;6.306;2023-01-24T10:28:47;103856.00;;;16.39;41.18
73455;BME280;61690;51.824;6.306;2023-01-24T10:31:18;103861.31;;;16.38;41.52
73455;BME280;61690;51.824;6.306;2023-01-24T10:33:47;103856.91;;;16.38;41.26
73455;BME280;61690;51.824;6.306;2023-01-24T10:39:08;103854.28;;;16.35;41.34
73455;BME280;61690;51.824;6.306;2023-01-24T10:41:35;103856.94;;;16.34;41.48
73455;BME280;61690;51.824;6.306;2023-01-24T10:52:23;103848.25;;;16.27;41.47
73455;BME280;61690;51.824;6.306;2023-01-24T10:54:52;103848.25;;;16.27;41.33
73455;BME280;61690;51.824;6.306;2023-01-24T11:02:31;103849.09;;;16.27;41.22
73455;BME280;61690;51.824;6.306;2023-01-24T11:05:05;103849.13;;;16.26;41.40
73455;BME280;61690;51.824;6.306;2023-01-24T11:07:35;103848.25;;;16.25;41.34
73455;BME280;61690;51.824;6.306;2023-01-24T11:10:18;103843.03;;;16.22;41.36
73455;BME280;61690;51.824;6.306;2023-01-24T11:12:58;103837.75;;;16.24;41.22
73455;BME280;61690;51.824;6.306;2023-01-24T11:15:33;103828.16;;;16.20;41.32
73455;BME280;61690;51.824;6.306;2023-01-24T11:18:11;103831.66;;;16.22;41.50
73455;BME280;61690;51.824;6.306;2023-01-24T11:20:41;103828.16;;;16.20;41.31
73455;BME280;61690;51.824;6.306;2023-01-24T11:23:15;103828.16;;;16.23;41.21
73455;BME280;61690;51.824;6.306;2023-01-24T11:25:59;103827.28;;;16.21;41.45
73455;BME280;61690;51.824;6.306;2023-01-24T11:28:31;103821.13;;;16.22;41.50
73455;BME280;61690;51.824;6.306;2023-01-24T11:31:00;103822.91;;;16.20;41.18
73455;BME280;61690;51.824;6.306;2023-01-24T11:39:02;103805.41;;;16.20;41.55
73455;BME280;61690;51.824;6.306;2023-01-24T11:41:47;103807.22;;;16.15;41.26
73455;BME280;61690;51.824;6.306;2023-01-24T11:44:26;103801.97;;;16.12;41.32
73455;BME280;61690;51.824;6.306;2023-01-24T11:47:08;103798.41;;;16.19;41.20
73455;BME280;61690;51.824;6.306;2023-01-24T11:55:17;103792.31;;;16.17;41.44
73455;BME280;61690;51.824;6.306;2023-01-24T11:58:35;103785.28;;;16.16;41.29
73455;BME280;61690;51.824;6.306;2023-01-24T12:01:14;103780.88;;;16.20;41.30
73455;BME280;61690;51.824;6.306;2023-01-24T12:03:59;103780.75;;;16.35;41.04
73455;BME280;61690;51.824;6.306;2023-01-24T12:06:46;103773.50;;;16.59;40.63
73455;BME280;61690;51.824;6.306;2023-01-24T12:09:22;103775.06;;;16.74;40.33
73455;BME280;61690;51.824;6.306;2023-01-24T12:12:02;103782.88;;;16.83;40.09
73455;BME280;61690;51.824;6.306;2023-01-24T12:17:45;103774.66;;;17.11;39.71
73455;BME280;61690;51.824;6.306;2023-01-24T12:20:26;103765.75;;;17.19;39.45
73455;BME280;61690;51.824;6.306;2023-01-24T12:23:01;103765.59;;;17.32;39.32
73455;BME280;61690;51.824;6.306;2023-01-24T12:25:39;103768.16;;;17.38;39.50
73455;BME280;61690;51.824;6.306;2023-01-24T12:28:12;103754.91;;;17.42;39.48
73455;BME280;61690;51.824;6.306;2023-01-24T12:30:43;103756.53;;;17.51;38.84
73455;BME280;61690;51.824;6.306;2023-01-24T12:36:05;103747.56;;;17.64;38.74
73455;BME280;61690;51.824;6.306;2023-01-24T12:38:40;103751.06;;;17.63;38.69
73455;BME280;61690;51.824;6.306;2023-01-24T12:41:13;103746.72;;;17.62;38.87
73455;BME280;61690;51.824;6.306;2023-01-24T12:49:47;103738.72;;;17.69;39.27
73455;BME280;61690;51.824;6.306;2023-01-24T12:52:25;103742.09;;;17.77;38.98
73455;BME280;61690;51.824;6.306;2023-01-24T12:55:19;103741.94;;;17.89;38.66
73455;BME280;61690;51.824;6.306;2023-01-24T12:57:53;103741.09;;;17.86;38.82
73455;BME280;61690;51.824;6.306;2023-01-24T13:00:21;103735.84;;;17.84;38.67
73455;BME280;61690;51.824;6.306;2023-01-24T13:05:55;103736.91;;;17.72;39.45
73455;BME280;61690;51.824;6.306;2023-01-24T13:08:57;103733.38;;;17.72;39.33
73455;BME280;61690;51.824;6.306;2023-01-24T13:11:26;103731.69;;;17.68;39.21
73455;BME280;61690;51.824;6.306;2023-01-24T13:14:28;103736.88;;;17.74;39.14
73455;BME280;61690;51.824;6.306;2023-01-24T13:17:14;103731.50;;;17.80;39.13
73455;BME280;61690;51.824;6.306;2023-01-24T13:20:01;103735.78;;;17.89;38.88
73455;BME280;61690;51.824;6.306;2023-01-24T13:22:46;103727.81;;;17.93;38.82
73455;BME280;61690;51.824;6.306;2023-01-24T13:28:11;103725.91;;;18.01;38.83
73455;BME280;61690;51.824;6.306;2023-01-24T13:30:53;103732.91;;;18.02;38.99
73455;BME280;61690;51.824;6.306;2023-01-24T13:33:30;103729.41;;;18.00;39.07
73455;BME280;61690;51.824;6.306;2023-01-24T13:36:03;103726.69;;;18.07;38.90
73455;BME280;61690;51.824;6.306;2023-01-24T13:38:38;103725.66;;;18.14;38.79
73455;BME280;61690;51.824;6.306;2023-01-24T13:41:07;103722.25;;;18.10;38.75
73455;BME280;61690;51.824;6.306;2023-01-24T13:46:12;103722.16;;;18.15;38.78
73455;BME280;61690;51.824;6.306;2023-01-24T13:54:17;103717.56;;;18.25;38.70
73455;BME280;61690;51.824;6.306;2023-01-24T14:00:14;103718.44;;;18.25;38.37
73455;BME280;61690;51.824;6.306;2023-01-24T14:07:56;103723.69;;;18.25;38.72
73455;BME280;61690;51.824;6.306;2023-01-24T14:10:33;103724.38;;;18.35;38.76
73455;BME280;61690;51.824;6.306;2023-01-24T14:13:00;103721.84;;;18.32;38.63
73455;BME280;61690;51.824;6.306;2023-01-24T14:15:28;103720.91;;;18.33;38.38
73455;BME280;61690;51.824;6.306;2023-01-24T14:17:57;103723.53;;;18.34;38.61
73455;BME280;61690;51.824;6.306;2023-01-24T14:20:34;103725.28;;;18.35;38.53
73455;BME280;61690;51.824;6.306;2023-01-24T14:23:02;103726.03;;;18.40;38.32
73455;BME280;61690;51.824;6.306;2023-01-24T14:30:45;103729.50;;;18.42;38.37
73455;BME280;61690;51.824;6.306;2023-01-24T14:38:45;103733.84;;;18.47;38.56
73455;BME280;61690;51.824;6.306;2023-01-24T14:41:21;103730.28;;;18.49;38.50
73455;BME280;61690;51.824;6.306;2023-01-24T14:43:48;103732.81;;;18.52;38.08